Time;durP1;ratioP1;P1;durP2;ratioP2;P2;SDS_P1;SDS_P2;PMS_P1;PMS_P2;Temp;Humidity;BMP_temperature;BMP_pressure;BME280_temperature;BME280_humidity;BME280_pressure;Samples;Min_cycle;Max_cycle;Signal;HPM_P1;HPM_P2
2022/08/16 00:00:43;;;;;;;;;;;;;;;19.52;65.40;99115.94;1084019;54;19939;-73
2022/08/16 00:01:47;;;;;;;;;;;;;;;19.47;65.61;99119.31;1083505;54;19939;-73
2022/08/16 00:02:48;;;;;;;;;;;;;;;19.49;65.67;99128.06;1083591;54;19953;-74
2022/08/16 00:03:51;;;;;;;;;;;;;;;19.39;66.08;99115.00;1084309;39;20603;-73
2022/08/16 00:04:53;;;;;;;;;;;;;;;19.44;66.01;99115.19;1084004;39;20581;-74
2022/08/16 00:05:56;;;;;;;;;;;;;;;19.42;65.82;99116.44;1083783;54;19974;-74
2022/08/16 00:06:57;;;;;;;;;;;;;;;19.46;65.97;99121.19;1083603;54;19950;-73
2022/08/16 00:08:01;;;;;;;;;;;;;;;19.38;66.15;99126.09;1083614;54;19946;-74
2022/08/16 00:09:02;;;;;;;;;;;;;;;19.46;65.57;99118.47;1083939;54;19969;-73
2022/08/16 00:10:08;;;;;;;;;;;;;;;19.49;65.90;99128.06;1083371;54;19947;-75
2022/08/16 00:11:10;;;;;;;;;;;;;;;19.53;65.60;99125.72;1083649;54;20410;-75
2022/08/16 00:12:14;;;;;;;;;;;;;;;19.46;65.56;99123.88;1083458;54;19974;-74
2022/08/16 00:13:15;;;;;;;;;;;;;;;19.57;65.15;99129.63;1083598;54;19939;-76
2022/08/16 00:14:23;;;;;;;;;;;;;;;19.64;64.81;99123.06;1083690;54;20470;-72
2022/08/16 00:15:27;;;;;;;;;;;;;;;19.71;64.63;99127.56;1083182;54;20033;-74
2022/08/16 00:16:32;;;;;;;;;;;;;;;19.71;64.77;99123.00;1083621;54;19950;-73
2022/08/16 00:17:33;;;;;;;;;;;;;;;19.76;64.54;99119.59;1083593;54;19953;-74
2022/08/16 00:18:36;;;;;;;;;;;;;;;19.70;64.61;99120.50;1083606;54;19946;-75
2022/08/16 00:19:38;;;;;;;;;;;;;;;19.75;64.69;99121.47;1084095;39;20397;-72
2022/08/16 00:20:42;;;;;;;;;;;;;;;19.73;65.00;99122.75;1083565;54;19946;-73
2022/08/16 00:21:43;;;;;;;;;;;;;;;19.73;64.59;99125.47;1083701;54;19938;-74
2022/08/16 00:22:47;;;;;;;;;;;;;;;19.71;64.87;99127.56;1083179;54;19947;-74
2022/08/16 00:23:48;;;;;;;;;;;;;;;19.77;64.63;99122.06;1083864;54;19977;-73
2022/08/16 00:24:52;;;;;;;;;;;;;;;19.59;65.38;99130.22;1084249;39;20325;-74
2022/08/16 00:25:53;;;;;;;;;;;;;;;19.68;65.04;99128.84;1083596;54;19972;-76
2022/08/16 00:26:57;;;;;;;;;;;;;;;19.72;64.72;99130.06;1083465;54;19977;-73
2022/08/16 00:27:59;;;;;;;;;;;;;;;19.70;64.68;99126.75;1083576;47;20516;-75
2022/08/16 00:29:03;;;;;;;;;;;;;;;19.70;64.81;99132.19;1083687;54;19954;-74
2022/08/16 00:30:09;;;;;;;;;;;;;;;19.66;64.90;99130.97;1084727;39;20599;-73
2022/08/16 00:31:12;;;;;;;;;;;;;;;19.73;64.59;99129.03;1083035;54;19956;-72
2022/08/16 00:32:14;;;;;;;;;;;;;;;19.73;64.77;99125.47;1083072;54;19954;-73
2022/08/16 00:33:17;;;;;;;;;;;;;;;19.77;64.46;99123.97;1083162;54;19981;-73
2022/08/16 00:34:19;;;;;;;;;;;;;;;19.80;64.62;99123.50;1083336;54;19951;-72
2022/08/16 00:35:24;;;;;;;;;;;;;;;19.84;64.43;99130.13;1083368;47;19939;-72
2022/08/16 00:36:25;;;;;;;;;;;;;;;19.82;64.44;99129.53;1083131;54;19951;-72
2022/08/16 00:37:29;;;;;;;;;;;;;;;19.81;64.54;99130.56;1083293;54;19946;-73
2022/08/16 00:38:30;;;;;;;;;;;;;;;19.86;64.48;99127.22;1083379;39;20341;-72
2022/08/16 00:39:34;;;;;;;;;;;;;;;19.74;65.15;99127.94;1083552;54;19985;-72
2022/08/16 00:40:36;;;;;;;;;;;;;;;19.72;65.21;99124.66;1083128;54;19947;-72
2022/08/16 00:41:39;;;;;;;;;;;;;;;19.78;64.76;99121.03;1083009;54;19961;-73
2022/08/16 00:42:41;;;;;;;;;;;;;;;19.86;64.90;99129.91;1083182;46;19985;-73
2022/08/16 00:43:44;;;;;;;;;;;;;;;19.86;64.70;99136.19;1084089;39;20360;-72
2022/08/16 00:44:52;;;;;;;;;;;;;;;19.87;64.21;99142.44;1083296;54;20437;-73
2022/08/16 00:46:02;;;;;;;;;;;;;;;19.80;64.88;99142.47;1083174;54;19953;-73
2022/08/16 00:47:07;;;;;;;;;;;;;;;19.86;64.79;99135.34;1082958;54;19969;-72
2022/08/16 00:48:12;;;;;;;;;;;;;;;19.84;64.62;99138.28;1083030;54;19957;-73
2022/08/16 00:49:13;;;;;;;;;;;;;;;19.87;64.57;99137.00;1082974;54;19947;-72
2022/08/16 00:50:17;;;;;;;;;;;;;;;19.83;64.98;99141.22;1083167;54;19946;-72
2022/08/16 00:51:20;;;;;;;;;;;;;;;19.84;64.87;99132.03;1083175;54;20426;-72
2022/08/16 00:52:23;;;;;;;;;;;;;;;19.84;65.20;99137.44;1083361;54;19977;-72
2022/08/16 00:53:24;;;;;;;;;;;;;;;19.85;65.55;99134.53;1082836;54;19946;-72
2022/08/16 00:54:29;;;;;;;;;;;;;;;19.87;65.86;99131.59;1083201;54;20516;-72
2022/08/16 00:55:30;;;;;;;;;;;;;;;19.86;65.80;99135.34;1083387;54;19947;-72
2022/08/16 00:56:37;;;;;;;;;;;;;;;19.86;65.69;99130.78;1083135;54;19991;-72
2022/08/16 00:57:38;;;;;;;;;;;;;;;19.84;66.11;99132.84;1083252;54;19946;-73
2022/08/16 00:58:45;;;;;;;;;;;;;;;19.74;67.09;99138.78;1083048;54;19946;-72
2022/08/16 00:59:46;;;;;;;;;;;;;;;19.70;66.67;99137.59;1082984;54;19972;-72
2022/08/16 01:00:51;;;;;;;;;;;;;;;19.62;67.72;99146.03;1083362;54;19988;-73
2022/08/16 01:01:57;;;;;;;;;;;;;;;19.51;67.93;99138.66;1082981;54;19978;-71
2022/08/16 01:03:00;;;;;;;;;;;;;;;19.49;67.54;99147.84;1083307;54;19939;-72
2022/08/16 01:04:04;;;;;;;;;;;;;;;19.49;67.96;99138.91;1083015;54;19958;-73
2022/08/16 01:05:05;;;;;;;;;;;;;;;19.49;67.74;99147.03;1083271;54;19977;-72
2022/08/16 01:06:09;;;;;;;;;;;;;;;19.46;68.05;99144.75;1085094;54;19974;-73
2022/08/16 01:07:10;;;;;;;;;;;;;;;19.47;67.53;99141.00;1085340;54;19992;-73
2022/08/16 01:08:16;;;;;;;;;;;;;;;19.49;67.60;99147.84;1084145;54;20442;-73
2022/08/16 01:09:18;;;;;;;;;;;;;;;19.46;67.64;99136.63;1083060;54;19951;-72
2022/08/16 01:10:23;;;;;;;;;;;;;;;19.46;67.43;99145.56;1082997;54;19969;-72
2022/08/16 01:11:25;;;;;;;;;;;;;;;19.47;67.53;99139.09;1083214;54;19938;-72
2022/08/16 01:12:29;;;;;;;;;;;;;;;19.49;67.61;99142.41;1082844;54;20018;-72
2022/08/16 01:13:31;;;;;;;;;;;;;;;19.52;67.37;99141.13;1083216;54;19947;-72
2022/08/16 01:14:38;;;;;;;;;;;;;;;19.54;67.06;99143.63;1082951;54;19970;-71
2022/08/16 01:15:42;;;;;;;;;;;;;;;19.56;66.90;99141.50;1083308;54;19951;-72
2022/08/16 01:16:47;;;;;;;;;;;;;;;19.55;66.96;99139.88;1082911;54;19951;-72
2022/08/16 01:17:52;;;;;;;;;;;;;;;19.60;66.83;99142.72;1082998;54;19954;-72
2022/08/16 01:18:58;;;;;;;;;;;;;;;19.57;67.31;99135.88;1083167;54;19974;-72
2022/08/16 01:20:01;;;;;;;;;;;;;;;19.52;67.20;99143.03;1083365;39;20378;-72
2022/08/16 01:21:12;;;;;;;;;;;;;;;19.43;67.48;99148.75;1083367;54;19939;-72
2022/08/16 01:22:16;;;;;;;;;;;;;;;19.40;68.09;99149.19;1083721;54;20103;-73
2022/08/16 01:23:24;;;;;;;;;;;;;;;19.37;68.15;99152.34;1085019;54;19939;-72
2022/08/16 01:24:30;;;;;;;;;;;;;;;19.35;68.04;99145.50;1083485;39;20552;-72
2022/08/16 01:25:35;;;;;;;;;;;;;;;19.32;68.29;99150.28;1083269;54;19957;-72
2022/08/16 01:26:38;;;;;;;;;;;;;;;19.28;68.36;99157.25;1083398;54;20034;-73
2022/08/16 01:27:44;;;;;;;;;;;;;;;19.26;68.33;99153.09;1083232;54;19977;-72
2022/08/16 01:28:46;;;;;;;;;;;;;;;19.24;68.44;99150.59;1083775;39;20009;-72
2022/08/16 01:29:53;;;;;;;;;;;;;;;19.23;68.39;99154.34;1082862;54;19951;-72
2022/08/16 01:30:55;;;;;;;;;;;;;;;19.23;68.52;99154.34;1083004;54;19969;-71
2022/08/16 01:31:59;;;;;;;;;;;;;;;19.27;68.37;99149.34;1083391;54;19946;-73
2022/08/16 01:33:02;;;;;;;;;;;;;;;19.20;68.33;99145.84;1083021;54;19954;-72
2022/08/16 01:34:06;;;;;;;;;;;;;;;19.28;68.51;99148.25;1083616;54;19939;-72
2022/08/16 01:35:10;;;;;;;;;;;;;;;19.28;67.96;99149.09;1083205;54;19962;-72
2022/08/16 01:36:14;;;;;;;;;;;;;;;19.36;67.94;99148.00;1083265;54;19966;-72
2022/08/16 01:37:15;;;;;;;;;;;;;;;19.35;67.74;99154.47;1083590;54;19947;-73
2022/08/16 01:38:21;;;;;;;;;;;;;;;19.38;67.70;99145.88;1083785;39;20346;-72
2022/08/16 01:39:22;;;;;;;;;;;;;;;19.42;67.58;99149.78;1084517;39;20418;-72
2022/08/16 01:40:31;;;;;;;;;;;;;;;19.48;67.25;99151.59;1083351;54;20513;-72
2022/08/16 01:41:32;;;;;;;;;;;;;;;19.52;67.55;99151.16;1084164;54;20391;-72
2022/08/16 01:42:36;;;;;;;;;;;;;;;19.51;67.65;99144.06;1085285;54;20500;-73
2022/08/16 01:43:39;;;;;;;;;;;;;;;19.52;67.35;99148.44;1085667;54;19950;-72
2022/08/16 01:44:43;;;;;;;;;;;;;;;19.53;67.42;99144.69;1086721;31;20467;-72
2022/08/16 01:45:44;;;;;;;;;;;;;;;19.53;67.11;99152.81;1085934;54;19953;-73
2022/08/16 01:46:52;;;;;;;;;;;;;;;19.51;67.27;99138.66;1086346;54;19942;-72
2022/08/16 01:47:53;;;;;;;;;;;;;;;19.48;67.41;99142.66;1086564;46;19982;-73
2022/08/16 01:48:58;;;;;;;;;;;;;;;19.52;67.12;99145.75;1088137;39;20345;-72
2022/08/16 01:49:59;;;;;;;;;;;;;;;19.57;67.06;99148.59;1086101;54;19946;-73
2022/08/16 01:51:04;;;;;;;;;;;;;;;19.60;67.39;99143.53;1086263;54;20013;-72
2022/08/16 01:52:06;;;;;;;;;;;;;;;19.66;66.90;99146.41;1086176;47;19947;-73
2022/08/16 01:53:11;;;;;;;;;;;;;;;19.67;66.89;99146.19;1088076;39;20329;-72
2022/08/16 01:54:12;;;;;;;;;;;;;;;19.69;66.89;99140.56;1086202;54;19946;-72
2022/08/16 01:55:18;;;;;;;;;;;;;;;19.71;66.70;99149.25;1086347;54;20060;-74
2022/08/16 01:56:23;;;;;;;;;;;;;;;19.74;66.66;99138.78;1085974;54;19946;-72
2022/08/16 01:57:27;;;;;;;;;;;;;;;19.76;66.37;99146.72;1085403;54;19964;-74
2022/08/16 01:58:28;;;;;;;;;;;;;;;19.77;66.31;99145.66;1085884;54;19954;-74
2022/08/16 01:59:32;;;;;;;;;;;;;;;19.76;66.61;99139.41;1090436;39;20326;-72
2022/08/16 02:00:33;;;;;;;;;;;;;;;19.75;66.45;99147.75;1090624;39;20396;-73
2022/08/16 02:01:37;;;;;;;;;;;;;;;19.75;66.67;99140.44;1086249;54;19939;-72
2022/08/16 02:02:38;;;;;;;;;;;;;;;19.76;66.38;99152.94;1086561;54;19939;-74
2022/08/16 02:03:42;;;;;;;;;;;;;;;19.77;66.45;99145.66;1086077;39;20368;-75
2022/08/16 02:04:43;;;;;;;;;;;;;;;19.79;66.44;99146.25;1085783;54;19946;-72
2022/08/16 02:05:47;;;;;;;;;;;;;;;19.80;66.69;99147.91;1086801;39;20329;-73
2022/08/16 02:06:48;;;;;;;;;;;;;;;19.81;66.51;99149.56;1083505;54;20011;-73
2022/08/16 02:07:52;;;;;;;;;;;;;;;19.82;66.44;99144.97;1083954;54;19946;-72
2022/08/16 02:08:53;;;;;;;;;;;;;;;19.80;66.02;99143.31;1085193;39;20396;-72
2022/08/16 02:09:57;;;;;;;;;;;;;;;19.82;66.42;99140.38;1083816;54;19938;-74
2022/08/16 02:10:59;;;;;;;;;;;;;;;19.80;66.45;99146.03;1083159;54;20030;-74
2022/08/16 02:12:06;;;;;;;;;;;;;;;19.80;66.31;99143.31;1083392;54;19946;-72
2022/08/16 02:13:08;;;;;;;;;;;;;;;19.82;65.89;99145.78;1083631;54;20021;-72
2022/08/16 02:14:11;;;;;;;;;;;;;;;19.79;66.01;99146.25;1083591;54;20521;-72
2022/08/16 02:15:14;;;;;;;;;;;;;;;19.80;66.44;99140.59;1083569;54;20046;-73
2022/08/16 02:16:17;;;;;;;;;;;;;;;19.79;66.24;99135.41;1084469;39;20353;-72
2022/08/16 02:17:18;;;;;;;;;;;;;;;19.77;66.83;99143.75;1083259;54;20457;-73
2022/08/16 02:18:22;;;;;;;;;;;;;;;19.78;66.76;99131.88;1083613;54;19951;-73
2022/08/16 02:19:26;;;;;;;;;;;;;;;19.75;66.99;99143.16;1083130;54;19946;-73
2022/08/16 02:20:31;;;;;;;;;;;;;;;19.70;67.18;99137.59;1083738;54;19946;-72
2022/08/16 02:21:32;;;;;;;;;;;;;;;19.68;67.50;99144.31;1083267;39;20701;-72
2022/08/16 02:22:36;;;;;;;;;;;;;;;19.68;67.25;99133.47;1083200;54;19946;-72
2022/08/16 02:23:37;;;;;;;;;;;;;;;19.64;67.40;99130.38;1083373;54;19948;-72
2022/08/16 02:24:42;;;;;;;;;;;;;;;19.60;67.72;99131.88;1083324;54;20049;-73
2022/08/16 02:25:43;;;;;;;;;;;;;;;19.61;67.69;99138.97;1083390;54;19950;-73
2022/08/16 02:26:47;;;;;;;;;;;;;;;19.58;67.67;99139.41;1083446;54;19950;-73
2022/08/16 02:27:50;;;;;;;;;;;;;;;19.56;67.60;99142.34;1083138;54;19947;-73
2022/08/16 02:28:55;;;;;;;;;;;;;;;19.52;68.20;99141.13;1083358;54;19950;-73
2022/08/16 02:29:56;;;;;;;;;;;;;;;19.48;68.34;99140.75;1083025;54;20007;-73
2022/08/16 02:31:01;;;;;;;;;;;;;;;19.47;68.16;99141.81;1083540;54;19947;-73
2022/08/16 02:32:03;;;;;;;;;;;;;;;19.51;67.91;99135.94;1083120;47;19947;-74
2022/08/16 02:33:07;;;;;;;;;;;;;;;19.53;67.62;99142.78;1083341;54;19991;-73
2022/08/16 02:34:08;;;;;;;;;;;;;;;19.53;67.89;99137.38;1083778;39;20365;-73
2022/08/16 02:35:13;;;;;;;;;;;;;;;19.52;67.65;99149.25;1083274;54;20434;-73
2022/08/16 02:36:14;;;;;;;;;;;;;;;19.55;67.79;99142.59;1083660;54;19946;-75
2022/08/16 02:37:18;;;;;;;;;;;;;;;19.57;67.78;99138.59;1083519;54;19946;-73
2022/08/16 02:38:19;;;;;;;;;;;;;;;19.52;67.75;99138.41;1083605;54;19952;-72
2022/08/16 02:39:24;;;;;;;;;;;;;;;19.48;67.86;99143.47;1084917;54;19950;-73
2022/08/16 02:40:26;;;;;;;;;;;;;;;19.54;67.48;99141.75;1085664;54;19946;-73
2022/08/16 02:41:29;;;;;;;;;;;;;;;19.54;67.37;99143.63;1085864;54;19950;-74
2022/08/16 02:42:30;;;;;;;;;;;;;;;19.53;67.75;99140.09;1083293;54;19958;-73
2022/08/16 02:43:37;;;;;;;;;;;;;;;19.59;67.50;99151.91;1083574;54;19972;-72
2022/08/16 02:44:40;;;;;;;;;;;;;;;19.57;67.57;99148.59;1083277;54;19951;-73
2022/08/16 02:45:43;;;;;;;;;;;;;;;19.57;67.81;99145.88;1083421;54;19947;-72
2022/08/16 02:46:45;;;;;;;;;;;;;;;19.55;68.16;99139.88;1083688;54;19947;-72
2022/08/16 02:47:49;;;;;;;;;;;;;;;19.54;67.88;99143.63;1083491;54;19959;-73
2022/08/16 02:48:50;;;;;;;;;;;;;;;19.52;67.90;99140.31;1083552;54;19947;-73
2022/08/16 02:49:54;;;;;;;;;;;;;;;19.51;67.91;99139.47;1082939;54;20437;-73
2022/08/16 02:50:56;;;;;;;;;;;;;;;19.47;68.30;99144.50;1083283;54;19953;-73
2022/08/16 02:52:00;;;;;;;;;;;;;;;19.47;67.88;99141.81;1083423;54;19985;-72
2022/08/16 02:53:01;;;;;;;;;;;;;;;19.46;67.88;99139.34;1083084;54;19938;-72
2022/08/16 02:54:03;;;;;;;;;;;;;;;19.42;68.17;99143.53;1083443;54;20457;-73
2022/08/16 02:55:07;;;;;;;;;;;;;;;19.39;68.28;99133.97;1083203;54;20433;-73
2022/08/16 02:56:11;;;;;;;;;;;;;;;19.37;68.23;99130.66;1083261;54;19958;-73
2022/08/16 02:57:14;;;;;;;;;;;;;;;19.40;68.19;99132.13;1083597;54;19953;-73
2022/08/16 02:58:15;;;;;;;;;;;;;;;19.41;67.95;99137.31;1083614;39;20360;-73
2022/08/16 02:59:22;;;;;;;;;;;;;;;19.38;68.22;99132.31;1083614;54;19970;-73
2022/08/16 03:00:23;;;;;;;;;;;;;;;19.34;67.78;99141.97;1083756;39;20349;-73
2022/08/16 03:01:29;;;;;;;;;;;;;;;19.35;68.00;99140.06;1083295;54;19977;-73
2022/08/16 03:02:30;;;;;;;;;;;;;;;19.28;68.08;99146.41;1083908;39;20588;-73
2022/08/16 03:03:35;;;;;;;;;;;;;;;19.26;68.18;99143.06;1083155;54;19946;-73
2022/08/16 03:04:36;;;;;;;;;;;;;;;19.24;68.16;99138.94;1083303;54;19947;-73
2022/08/16 03:05:40;;;;;;;;;;;;;;;19.21;68.07;99139.38;1083456;54;20039;-72
2022/08/16 03:06:41;;;;;;;;;;;;;;;19.22;67.95;99139.19;1083528;54;19946;-73
2022/08/16 03:07:45;;;;;;;;;;;;;;;19.25;68.27;99143.31;1083394;54;19939;-73
2022/08/16 03:08:47;;;;;;;;;;;;;;;19.28;68.16;99138.28;1083225;54;19953;-73
2022/08/16 03:09:50;;;;;;;;;;;;;;;19.30;68.20;99135.31;1083516;54;19963;-72
2022/08/16 03:10:52;;;;;;;;;;;;;;;19.33;68.07;99129.47;1083226;54;19978;-72
2022/08/16 03:11:55;;;;;;;;;;;;;;;19.33;68.01;99133.00;1083421;54;19975;-73
2022/08/16 03:12:58;;;;;;;;;;;;;;;19.37;67.67;99129.84;1083256;54;19950;-73
2022/08/16 03:14:04;;;;;;;;;;;;;;;19.39;67.80;99119.63;1083382;54;19972;-73
2022/08/16 03:15:10;;;;;;;;;;;;;;;19.40;67.38;99132.94;1083326;54;20033;-73
2022/08/16 03:16:14;;;;;;;;;;;;;;;19.40;67.46;99123.97;1083757;39;20351;-72
2022/08/16 03:17:16;;;;;;;;;;;;;;;19.39;67.30;99125.84;1083470;54;19993;-73
2022/08/16 03:18:19;;;;;;;;;;;;;;;19.38;67.67;99124.19;1084072;31;20495;-72
2022/08/16 03:19:20;;;;;;;;;;;;;;;19.34;67.81;99117.59;1082908;54;20942;-73
2022/08/16 03:20:24;;;;;;;;;;;;;;;19.33;67.69;99121.34;1083411;54;19947;-73
2022/08/16 03:21:26;;;;;;;;;;;;;;;19.34;67.65;99123.00;1083579;39;20387;-73
2022/08/16 03:22:30;;;;;;;;;;;;;;;19.34;68.03;99125.72;1083213;54;19947;-73
2022/08/16 03:23:31;;;;;;;;;;;;;;;19.36;67.57;99123.59;1083215;54;19951;-73
2022/08/16 03:24:35;;;;;;;;;;;;;;;19.36;68.02;99120.91;1083198;54;19946;-72
2022/08/16 03:25:39;;;;;;;;;;;;;;;19.38;67.89;99117.97;1083237;54;19952;-73
2022/08/16 03:26:40;;;;;;;;;;;;;;;19.38;67.89;99116.06;1083226;47;19947;-73
2022/08/16 03:27:44;;;;;;;;;;;;;;;19.41;67.66;99114.81;1083741;39;20653;-73
2022/08/16 03:28:45;;;;;;;;;;;;;;;19.39;68.53;99116.91;1083191;54;19939;-73
2022/08/16 03:29:48;;;;;;;;;;;;;;;19.34;68.74;99112.16;1083423;39;20346;-73
2022/08/16 03:30:52;;;;;;;;;;;;;;;19.31;68.70;99109.91;1083343;54;20402;-73
2022/08/16 03:31:56;;;;;;;;;;;;;;;19.27;68.90;99117.66;1083238;54;19962;-72
2022/08/16 03:32:57;;;;;;;;;;;;;;;19.25;68.81;99119.75;1083598;54;19938;-71
2022/08/16 03:34:01;;;;;;;;;;;;;;;19.25;68.61;99113.50;1083211;39;19970;-72
2022/08/16 03:35:02;;;;;;;;;;;;;;;19.24;68.67;99109.16;1083143;54;19966;-73
2022/08/16 03:36:06;;;;;;;;;;;;;;;19.21;68.69;99117.72;1083412;46;20012;-73
2022/08/16 03:37:10;;;;;;;;;;;;;;;19.20;68.96;99116.03;1083239;54;19986;-73
2022/08/16 03:38:13;;;;;;;;;;;;;;;19.20;68.56;99122.31;1083875;39;20504;-73
2022/08/16 03:39:17;;;;;;;;;;;;;;;19.21;68.85;99115.00;1083268;54;19942;-73
2022/08/16 03:40:18;;;;;;;;;;;;;;;19.20;68.69;99125.03;1083355;54;19984;-73
2022/08/16 03:41:22;;;;;;;;;;;;;;;19.20;68.84;99110.63;1083246;54;20441;-72
2022/08/16 03:42:23;;;;;;;;;;;;;;;19.20;68.69;99116.03;1083270;54;19939;-73
2022/08/16 03:43:28;;;;;;;;;;;;;;;19.20;68.94;99116.03;1083904;39;20366;-72
2022/08/16 03:44:29;;;;;;;;;;;;;;;19.22;68.77;99113.94;1083665;39;20413;-73
2022/08/16 03:45:33;;;;;;;;;;;;;;;19.23;68.91;99119.13;1083481;54;19969;-73
2022/08/16 03:46:37;;;;;;;;;;;;;;;19.23;68.95;99116.44;1083727;39;20345;-72
2022/08/16 03:47:40;;;;;;;;;;;;;;;19.22;68.96;99113.94;1083089;54;19948;-72
2022/08/16 03:48:42;;;;;;;;;;;;;;;19.17;70.19;99123.59;1083289;54;19939;-71
2022/08/16 03:49:46;;;;;;;;;;;;;;;19.13;70.60;99116.09;1082997;54;19946;-72
2022/08/16 03:50:47;;;;;;;;;;;;;;;19.13;69.92;99118.81;1083486;46;19947;-74
2022/08/16 03:51:51;;;;;;;;;;;;;;;19.09;70.62;99118.44;1083315;54;19947;-72
2022/08/16 03:52:52;;;;;;;;;;;;;;;19.07;71.30;99115.16;1083188;54;19962;-73
2022/08/16 03:53:56;;;;;;;;;;;;;;;19.06;71.29;99116.19;1083606;54;19974;-73
2022/08/16 03:54:58;;;;;;;;;;;;;;;19.09;70.93;99126.56;1083265;54;20497;-73
2022/08/16 03:56:01;;;;;;;;;;;;;;;19.09;70.75;99123.84;1083574;54;19977;-73
2022/08/16 03:57:03;;;;;;;;;;;;;;;19.11;70.78;99118.22;1083171;54;19950;-73
2022/08/16 03:58:07;;;;;;;;;;;;;;;19.11;70.86;99123.66;1083771;39;20298;-74
2022/08/16 03:59:08;;;;;;;;;;;;;;;19.10;71.15;99128.22;1083974;39;20390;-73
2022/08/16 04:00:14;;;;;;;;;;;;;;;19.09;71.17;99123.84;1083030;54;19947;-74
2022/08/16 04:01:15;;;;;;;;;;;;;;;19.09;70.88;99125.75;1083491;54;19958;-75
2022/08/16 04:02:22;;;;;;;;;;;;;;;19.10;71.00;99116.56;1082969;54;20065;-75
2022/08/16 04:03:23;;;;;;;;;;;;;;;19.06;71.41;99124.31;1083054;54;19955;-74
2022/08/16 04:04:27;;;;;;;;;;;;;;;18.94;71.39;99126.09;1083301;54;19938;-74
2022/08/16 04:05:28;;;;;;;;;;;;;;;18.91;71.46;99121.06;1083870;31;20438;-74
2022/08/16 04:06:32;;;;;;;;;;;;;;;18.94;71.21;99121.50;1083274;54;19973;-75
2022/08/16 04:07:33;;;;;;;;;;;;;;;18.98;71.44;99119.19;1083230;54;19994;-72
2022/08/16 04:08:36;;;;;;;;;;;;;;;18.98;71.23;99120.00;1083391;54;19954;-75
2022/08/16 04:09:37;;;;;;;;;;;;;;;18.94;71.21;99118.78;1083171;54;19946;-72
2022/08/16 04:10:41;;;;;;;;;;;;;;;18.90;71.56;99117.56;1082973;54;20438;-72
2022/08/16 04:11:42;;;;;;;;;;;;;;;18.93;71.37;99116.31;1083407;54;19961;-74
2022/08/16 04:12:47;;;;;;;;;;;;;;;18.98;71.36;99120.00;1083087;54;19954;-74
2022/08/16 04:13:48;;;;;;;;;;;;;;;19.01;70.90;99113.31;1083102;54;19947;-74
2022/08/16 04:14:52;;;;;;;;;;;;;;;19.05;70.71;99116.41;1082995;54;19953;-72
2022/08/16 04:15:54;;;;;;;;;;;;;;;19.07;70.62;99117.00;1083184;54;19947;-73
2022/08/16 04:16:58;;;;;;;;;;;;;;;19.09;70.53;99120.34;1083277;54;19946;-72
2022/08/16 04:18:03;;;;;;;;;;;;;;;19.09;70.54;99123.03;1083083;54;19965;-74
2022/08/16 04:19:06;;;;;;;;;;;;;;;19.08;70.47;99119.47;1083498;54;19974;-72
2022/08/16 04:20:08;;;;;;;;;;;;;;;19.10;70.38;99116.56;1082525;54;20069;-72
2022/08/16 04:21:12;;;;;;;;;;;;;;;19.09;70.41;99115.72;1083089;54;19947;-73
2022/08/16 04:22:13;;;;;;;;;;;;;;;19.11;70.74;99116.34;1083397;54;20426;-72
2022/08/16 04:23:17;;;;;;;;;;;;;;;19.09;71.69;99115.72;1082654;39;20460;-72
2022/08/16 04:24:18;;;;;;;;;;;;;;;19.07;71.34;99117.84;1083870;39;20404;-73
2022/08/16 04:25:22;;;;;;;;;;;;;;;19.07;71.22;99127.84;1082883;54;19971;-74
2022/08/16 04:26:23;;;;;;;;;;;;;;;19.04;71.27;99118.28;1083161;54;19946;-74
2022/08/16 04:27:27;;;;;;;;;;;;;;;19.02;72.15;99123.09;1083610;54;19942;-74
2022/08/16 04:28:28;;;;;;;;;;;;;;;19.04;71.52;99131.84;1083525;54;19969;-72
2022/08/16 04:29:32;;;;;;;;;;;;;;;19.03;71.70;99122.06;1083658;54;20470;-73
2022/08/16 04:30:33;;;;;;;;;;;;;;;19.01;71.94;99126.84;1082960;54;20002;-75
2022/08/16 04:31:37;;;;;;;;;;;;;;;18.99;72.02;99129.78;1083284;54;19971;-72
2022/08/16 04:32:39;;;;;;;;;;;;;;;18.93;72.53;99135.25;1083625;39;20397;-74
2022/08/16 04:33:45;;;;;;;;;;;;;;;18.93;72.25;99129.84;1083024;54;19954;-75
2022/08/16 04:34:46;;;;;;;;;;;;;;;18.93;71.90;99143.38;1083282;54;19946;-74
2022/08/16 04:35:49;;;;;;;;;;;;;;;18.93;71.59;99133.41;1083542;39;20345;-74
2022/08/16 04:36:51;;;;;;;;;;;;;;;18.95;71.64;99136.69;1083297;54;19958;-73
2022/08/16 04:37:54;;;;;;;;;;;;;;;18.92;71.95;99138.97;1083097;46;19971;-74
2022/08/16 04:38:56;;;;;;;;;;;;;;;18.92;71.80;99150.66;1082826;54;19947;-74
2022/08/16 04:40:00;;;;;;;;;;;;;;;18.90;72.05;99152.75;1083652;54;19946;-72
2022/08/16 04:41:01;;;;;;;;;;;;;;;18.90;71.41;99154.63;1082625;39;20389;-72
2022/08/16 04:42:05;;;;;;;;;;;;;;;18.85;71.50;99142.59;1084338;39;20390;-74
2022/08/16 04:43:07;;;;;;;;;;;;;;;18.88;71.66;99149.44;1083121;54;19950;-72
2022/08/16 04:44:12;;;;;;;;;;;;;;;18.88;71.17;99146.72;1083142;54;19962;-74
2022/08/16 04:45:13;;;;;;;;;;;;;;;18.86;71.55;99157.78;1083079;54;19950;-74
2022/08/16 04:46:17;;;;;;;;;;;;;;;18.85;71.44;99156.13;1083763;31;20439;-74
2022/08/16 04:47:18;;;;;;;;;;;;;;;18.82;71.81;99153.84;1082977;54;19951;-74
2022/08/16 04:48:22;;;;;;;;;;;;;;;18.80;72.19;99155.94;1083072;54;19946;-71
2022/08/16 04:49:26;;;;;;;;;;;;;;;18.74;72.53;99159.53;1082936;54;19950;-72
2022/08/16 04:50:29;;;;;;;;;;;;;;;18.75;72.48;99153.09;1082906;54;19951;-72
2022/08/16 04:51:34;;;;;;;;;;;;;;;18.77;72.34;99156.41;1083052;54;19947;-73
2022/08/16 04:52:35;;;;;;;;;;;;;;;18.76;72.75;99159.31;1083299;54;20426;-73
2022/08/16 04:53:39;;;;;;;;;;;;;;;18.75;72.53;99149.56;1082332;54;19951;-73
2022/08/16 04:54:41;;;;;;;;;;;;;;;18.75;72.34;99152.25;1083148;54;20532;-73
2022/08/16 04:55:44;;;;;;;;;;;;;;;18.70;72.73;99148.31;1083039;54;20033;-73
2022/08/16 04:56:45;;;;;;;;;;;;;;;18.68;73.00;99155.84;1082925;46;19973;-73
2022/08/16 04:57:50;;;;;;;;;;;;;;;18.69;72.97;99153.97;1083117;54;19947;-73
2022/08/16 04:58:54;;;;;;;;;;;;;;;18.63;73.79;99155.69;1083066;54;19947;-73
2022/08/16 04:59:55;;;;;;;;;;;;;;;18.59;74.01;99159.03;1082732;54;19942;-74
2022/08/16 05:00:59;;;;;;;;;;;;;;;18.48;74.54;99156.00;1083126;54;19951;-73
2022/08/16 05:02:00;;;;;;;;;;;;;;;18.50;74.44;99163.88;1082839;54;19966;-73
2022/08/16 05:03:06;;;;;;;;;;;;;;;18.50;74.46;99156.59;1083269;54;20445;-73
2022/08/16 05:04:07;;;;;;;;;;;;;;;18.45;73.84;99155.59;1083010;47;19970;-73
2022/08/16 05:05:14;;;;;;;;;;;;;;;18.44;74.35;99162.06;1083096;54;19950;-73
2022/08/16 05:06:17;;;;;;;;;;;;;;;18.44;74.36;99175.59;1083291;54;19969;-73
2022/08/16 05:07:19;;;;;;;;;;;;;;;18.41;74.05;99168.72;1083169;54;19969;-74
2022/08/16 05:08:23;;;;;;;;;;;;;;;18.44;74.14;99168.28;1083240;54;20119;-74
2022/08/16 05:09:24;;;;;;;;;;;;;;;18.43;73.98;99169.31;1083136;39;20409;-75
2022/08/16 05:10:28;;;;;;;;;;;;;;;18.45;74.08;99167.22;1082907;54;19950;-74
2022/08/16 05:11:29;;;;;;;;;;;;;;;18.50;73.55;99172.00;1083703;39;20394;-74
2022/08/16 05:12:33;;;;;;;;;;;;;;;18.55;73.44;99174.88;1083062;54;19953;-74
2022/08/16 05:13:36;;;;;;;;;;;;;;;18.60;73.53;99179.66;1083504;54;19962;-74
2022/08/16 05:14:40;;;;;;;;;;;;;;;18.65;73.11;99179.81;1082822;54;20430;-74
2022/08/16 05:15:41;;;;;;;;;;;;;;;18.69;73.15;99179.16;1083284;46;19966;-74
2022/08/16 05:16:45;;;;;;;;;;;;;;;18.73;72.68;99171.41;1083209;54;19954;-74
2022/08/16 05:17:47;;;;;;;;;;;;;;;18.69;73.42;99175.63;1082979;54;19939;-74
2022/08/16 05:18:52;;;;;;;;;;;;;;;18.71;73.09;99178.91;1083147;54;19950;-75
2022/08/16 05:19:53;;;;;;;;;;;;;;;18.75;72.57;99176.63;1082572;54;19950;-74
2022/08/16 05:21:00;;;;;;;;;;;;;;;18.68;73.51;99179.38;1082845;54;19965;-74
2022/08/16 05:22:01;;;;;;;;;;;;;;;18.69;73.22;99183.75;1082958;54;19970;-74
2022/08/16 05:23:05;;;;;;;;;;;;;;;18.73;73.01;99181.44;1082622;54;19935;-75
2022/08/16 05:24:07;;;;;;;;;;;;;;;18.67;73.02;99178.53;1083332;54;19943;-74
2022/08/16 05:25:12;;;;;;;;;;;;;;;18.71;72.69;99176.22;1083259;54;20037;-74
2022/08/16 05:26:13;;;;;;;;;;;;;;;18.71;72.50;99174.34;1082999;54;19946;-76
2022/08/16 05:27:17;;;;;;;;;;;;;;;18.71;72.81;99173.50;1083453;47;19946;-74
2022/08/16 05:28:18;;;;;;;;;;;;;;;18.70;72.93;99169.16;1083000;54;20039;-74
2022/08/16 05:29:22;;;;;;;;;;;;;;;18.68;73.18;99173.97;1083043;54;19961;-74